Time;durP1;ratioP1;P1;durP2;ratioP2;P2;SDS_P1;SDS_P2;PMS_P1;PMS_P2;Temp;Humidity;BMP_temperature;BMP_pressure;BME280_temperature;BME280_humidity;BME280_pressure;Samples;Min_cycle;Max_cycle;Signal;HPM_P1;HPM_P2
2022/10/03 00:01:57;0.00;0.00;0.62;0.00;0.00;0.62;2.33;1.10;;;27.00;28.30;;;;;;2266005;61;20361;-63
2022/10/03 00:04:58;0.00;0.00;0.62;0.00;0.00;0.62;2.00;1.10;;;27.00;28.40;;;;;;2266118;61;20424;-64
2022/10/03 00:08:00;0.00;0.00;0.62;0.00;0.00;0.62;2.63;1.67;;;27.00;28.40;;;;;;2265052;61;20472;-65
2022/10/03 00:10:59;0.00;0.00;0.62;0.00;0.00;0.62;1.90;1.20;;;27.00;28.40;;;;;;2266225;61;20384;-65
2022/10/03 00:13:56;0.00;0.00;0.62;0.00;0.00;0.62;1.90;1.23;;;27.00;28.40;;;;;;2265330;61;20397;-66
2022/10/03 00:16:50;0.00;0.00;0.62;0.00;0.00;0.62;2.43;1.30;;;27.00;28.40;;;;;;2266204;61;20357;-64
2022/10/03 00:19:44;0.00;0.00;0.62;0.00;0.00;0.62;2.70;1.30;;;27.00;28.40;;;;;;2265469;61;20419;-63
2022/10/03 00:22:40;0.00;0.00;0.62;0.00;0.00;0.62;1.67;1.13;;;27.00;28.50;;;;;;2265023;61;20368;-66
2022/10/03 00:25:38;0.00;0.00;0.62;0.00;0.00;0.62;2.20;1.40;;;27.00;28.50;;;;;;2266140;61;20595;-63
2022/10/03 00:28:49;0.00;0.00;0.62;0.00;0.00;0.62;1.60;1.00;;;27.00;28.50;;;;;;2265161;61;20395;-65
2022/10/03 00:31:44;0.00;0.00;0.62;0.00;0.00;0.62;2.40;1.20;;;27.00;28.50;;;;;;2265652;61;20361;-64
2022/10/03 00:34:51;0.00;0.00;0.62;0.00;0.00;0.62;2.03;1.20;;;27.00;28.50;;;;;;2265976;61;20353;-64
2022/10/03 00:37:44;0.00;0.00;0.62;0.00;0.00;0.62;1.93;1.17;;;27.00;28.50;;;;;;2265137;61;20349;-64
2022/10/03 00:40:57;0.00;0.00;0.62;0.00;0.00;0.62;3.20;1.20;;;27.00;28.50;;;;;;2265917;61;20381;-65
2022/10/03 00:44:23;0.00;0.00;0.62;0.00;0.00;0.62;2.23;1.23;;;27.00;28.50;;;;;;2265242;61;20851;-64
2022/10/03 00:47:49;0.00;0.00;0.62;0.00;0.00;0.62;1.73;1.10;;;27.00;28.50;;;;;;2270226;61;20401;-64
2022/10/03 00:51:12;0.00;0.00;0.62;0.00;0.00;0.62;2.60;1.37;;;26.90;28.50;;;;;;2269075;61;20406;-64
2022/10/03 00:54:18;0.00;0.00;0.62;0.00;0.00;0.62;1.80;1.00;;;27.00;28.60;;;;;;2270154;61;20360;-64
2022/10/03 00:57:27;0.00;0.00;0.62;0.00;0.00;0.62;2.00;1.20;;;26.90;28.50;;;;;;2269906;61;20341;-64
2022/10/03 01:00:23;0.00;0.00;0.62;0.00;0.00;0.62;1.80;1.00;;;26.90;28.60;;;;;;2269514;61;20379;-65
2022/10/03 01:03:30;0.00;0.00;0.62;0.00;0.00;0.62;2.60;1.20;;;26.90;28.60;;;;;;2269965;61;20355;-65
2022/10/03 01:06:34;0.00;0.00;0.62;0.00;0.00;0.62;1.60;0.80;;;26.90;28.50;;;;;;2268842;61;20379;-66
2022/10/03 01:09:47;0.00;0.00;0.62;0.00;0.00;0.62;1.87;0.90;;;26.90;28.60;;;;;;2269789;61;20375;-66
2022/10/03 01:12:52;0.00;0.00;0.62;0.00;0.00;0.62;2.90;1.40;;;26.90;28.60;;;;;;2269749;61;20402;-65
2022/10/03 01:15:50;0.00;0.00;0.62;0.00;0.00;0.62;2.00;1.10;;;26.90;29.10;;;;;;2270020;61;20722;-65
2022/10/03 01:18:51;0.00;0.00;0.62;0.00;0.00;0.62;2.63;0.80;;;26.90;28.60;;;;;;2269825;61;20605;-67
2022/10/03 01:21:44;0.00;0.00;0.62;0.00;0.00;0.62;1.87;1.03;;;26.90;28.60;;;;;;2268654;61;20356;-66
2022/10/03 01:24:51;0.00;0.00;0.62;0.00;0.00;0.62;2.00;1.07;;;26.90;28.50;;;;;;2269701;61;20403;-67
2022/10/03 01:30:57;0.00;0.00;0.62;0.00;0.00;0.62;1.60;0.93;;;26.90;28.50;;;;;;2269750;61;20622;-67
2022/10/03 01:33:52;0.00;0.00;0.62;0.00;0.00;0.62;3.60;1.10;;;26.90;28.50;;;;;;2269697;61;20403;-67
2022/10/03 01:36:51;0.00;0.00;0.62;0.00;0.00;0.62;2.87;1.47;;;26.80;28.40;;;;;;2268570;61;20398;-67
2022/10/03 01:39:44;0.00;0.00;0.62;0.00;0.00;0.62;2.63;1.20;;;26.80;28.40;;;;;;2269612;61;20598;-67
2022/10/03 01:42:39;0.00;0.00;0.62;0.00;0.00;0.62;2.03;1.10;;;26.80;28.30;;;;;;2269145;61;20606;-67
2022/10/03 01:45:36;0.00;0.00;0.62;0.00;0.00;0.62;2.63;1.50;;;26.80;28.30;;;;;;2269448;61;20499;-68
2022/10/03 01:48:32;0.00;0.00;0.62;0.00;0.00;0.62;4.33;1.67;;;26.80;28.30;;;;;;2270007;61;20433;-66
2022/10/03 01:51:25;0.00;0.00;0.62;0.00;0.00;0.62;3.30;1.30;;;26.70;28.30;;;;;;2268511;61;20355;-67
2022/10/03 01:54:25;0.00;0.00;0.62;0.00;0.00;0.62;2.43;1.40;;;26.80;28.30;;;;;;2269923;61;20352;-67
2022/10/03 01:57:20;0.00;0.00;0.62;0.00;0.00;0.62;2.63;1.27;;;26.70;28.30;;;;;;2268899;61;20395;-67
2022/10/03 02:00:12;0.00;0.00;0.62;0.00;0.00;0.62;3.40;1.80;;;26.70;28.30;;;;;;2269264;61;20368;-67
2022/10/03 02:03:06;0.00;0.00;0.62;0.00;0.00;0.62;3.20;1.43;;;26.60;28.20;;;;;;2269845;61;20412;-67
2022/10/03 02:06:02;0.00;0.00;0.62;0.00;0.00;0.62;2.97;1.13;;;26.60;28.20;;;;;;2268372;61;20380;-67
2022/10/03 02:08:57;0.00;0.00;0.62;0.00;0.00;0.62;3.50;1.73;;;26.60;28.20;;;;;;2269643;61;20360;-68
2022/10/03 02:12:07;0.00;0.00;0.62;0.00;0.00;0.62;2.53;1.40;;;26.60;28.20;;;;;;2269800;61;20364;-66
2022/10/03 02:14:58;0.00;0.00;0.62;0.00;0.00;0.62;2.30;1.30;;;26.60;28.20;;;;;;2269386;61;20352;-66
2022/10/03 02:17:54;0.00;0.00;0.62;0.00;0.00;0.62;2.80;1.60;;;26.50;28.20;;;;;;2269800;61;20403;-67
2022/10/03 02:20:46;0.00;0.00;0.62;0.00;0.00;0.62;2.50;1.13;;;26.50;28.20;;;;;;2268262;61;21014;-67
2022/10/03 02:23:42;0.00;0.00;0.62;0.00;0.00;0.62;3.33;1.27;;;26.50;28.20;;;;;;2269607;61;20463;-68
2022/10/03 02:27:08;0.00;0.00;0.62;0.00;0.00;0.62;5.30;1.97;;;26.50;28.20;;;;;;2269883;61;20360;-68
2022/10/03 02:30:19;0.00;0.00;0.62;0.00;0.00;0.62;3.87;1.63;;;26.50;28.20;;;;;;2269355;61;20408;-67
2022/10/03 02:34:00;0.00;0.00;0.62;0.00;0.00;0.62;2.73;1.47;;;26.40;28.10;;;;;;2269736;61;20712;-67
2022/10/03 02:37:58;0.00;0.00;0.62;0.00;0.00;0.62;4.30;1.97;;;26.40;28.20;;;;;;2265036;61;20368;-67
2022/10/03 02:41:31;0.00;0.00;0.62;0.00;0.00;0.62;4.07;1.43;;;26.30;28.20;;;;;;2252508;61;20430;-67
2022/10/03 02:44:54;0.00;0.00;0.62;0.00;0.00;0.62;3.20;1.47;;;26.30;28.20;;;;;;2254775;61;20793;-67
2022/10/03 02:48:25;0.00;0.00;0.62;0.00;0.00;0.62;5.97;1.57;;;26.30;28.20;;;;;;2270455;61;20355;-66
2022/10/03 02:52:06;0.00;0.00;0.62;0.00;0.00;0.62;2.50;1.53;;;26.20;28.20;;;;;;2269737;61;20363;-66
2022/10/03 02:55:36;0.00;0.00;0.62;0.00;0.00;0.62;2.17;1.40;;;26.20;28.20;;;;;;2270437;61;20359;-67
2022/10/03 02:58:57;0.00;0.00;0.62;0.00;0.00;0.62;3.13;1.20;;;26.20;28.20;;;;;;2269133;61;20363;-66
2022/10/03 03:02:00;0.00;0.00;0.62;0.00;0.00;0.62;3.07;1.27;;;26.20;28.20;;;;;;2270283;61;20364;-66
2022/10/03 03:05:24;0.00;0.00;0.62;0.00;0.00;0.62;4.57;1.63;;;26.10;28.20;;;;;;2268942;61;20607;-66
2022/10/03 03:08:49;0.00;0.00;0.62;0.00;0.00;0.62;3.70;1.40;;;26.10;28.20;;;;;;2270236;61;20575;-67
2022/10/03 03:12:30;0.00;0.00;0.62;0.00;0.00;0.62;3.47;1.60;;;26.10;28.20;;;;;;2269063;61;20364;-67
2022/10/03 03:16:15;0.00;0.00;0.62;0.00;0.00;0.62;2.37;1.20;;;26.00;28.20;;;;;;2270431;61;20414;-67
2022/10/03 03:19:35;0.00;0.00;0.62;0.00;0.00;0.62;7.13;1.70;;;26.00;28.20;;;;;;2268951;61;20391;-67
2022/10/03 03:22:40;0.00;0.00;0.62;0.00;0.00;0.62;3.53;1.50;;;26.00;28.20;;;;;;2270041;61;20380;-67
2022/10/03 03:25:51;0.00;0.00;0.62;0.00;0.00;0.62;2.27;1.40;;;25.90;28.20;;;;;;2270015;61;20388;-67
2022/10/03 03:28:48;0.00;0.00;0.62;0.00;0.00;0.62;3.20;1.20;;;25.90;28.20;;;;;;2269716;61;20352;-67
2022/10/03 03:31:44;0.00;0.00;0.62;0.00;0.00;0.62;3.97;1.43;;;25.90;28.30;;;;;;2270049;61;20387;-66
2022/10/03 03:34:41;0.00;0.00;0.62;0.00;0.00;0.62;3.83;1.20;;;25.90;28.30;;;;;;2269113;61;20368;-67
2022/10/03 03:37:33;0.00;0.00;0.62;0.00;0.00;0.62;3.10;1.13;;;25.80;28.30;;;;;;2269987;61;20428;-66
2022/10/03 03:40:44;0.00;0.00;0.62;0.00;0.00;0.62;3.47;1.30;;;25.80;28.30;;;;;;2270083;61;20407;-67
2022/10/03 03:43:49;0.00;0.00;0.62;0.00;0.00;0.62;4.00;1.40;;;25.80;28.30;;;;;;2269999;61;20438;-67
2022/10/03 03:46:56;0.00;0.00;0.62;0.00;0.00;0.62;3.37;1.60;;;25.80;28.30;;;;;;2266132;61;20725;-66
2022/10/03 03:50:10;0.00;0.00;0.62;0.00;0.00;0.62;3.10;1.80;;;25.80;28.30;;;;;;2264720;61;20760;-67
2022/10/03 03:53:31;0.00;0.00;0.62;0.00;0.00;0.62;2.00;1.10;;;25.80;28.30;;;;;;2266115;61;20353;-68
2022/10/03 03:56:38;0.00;0.00;0.62;0.00;0.00;0.62;2.43;1.10;;;25.70;28.30;;;;;;2264975;61;20377;-67
2022/10/03 03:59:45;0.00;0.00;0.62;0.00;0.00;0.62;3.80;1.37;;;25.70;28.30;;;;;;2265775;61;20411;-67
2022/10/03 04:03:11;0.00;0.00;0.62;0.00;0.00;0.62;3.13;1.30;;;25.70;28.30;;;;;;2266063;61;20622;-67
2022/10/03 04:06:16;0.00;0.00;0.62;0.00;0.00;0.62;3.93;1.30;;;25.70;28.30;;;;;;2262137;61;20431;-67
2022/10/03 04:09:42;0.00;0.00;0.62;0.00;0.00;0.62;2.10;1.00;;;25.70;28.40;;;;;;2265970;61;20384;-67
2022/10/03 04:12:46;0.00;0.00;0.62;0.00;0.00;0.62;3.60;1.60;;;25.70;28.40;;;;;;2263410;61;20411;-67
2022/10/03 04:15:55;0.00;0.00;0.62;0.00;0.00;0.62;2.57;1.30;;;25.70;28.40;;;;;;2266001;61;20348;-66
2022/10/03 04:19:02;0.00;0.00;0.62;0.00;0.00;0.62;2.33;1.60;;;25.70;28.40;;;;;;2264563;61;20431;-66
2022/10/03 04:22:17;0.00;0.00;0.62;0.00;0.00;0.62;2.43;1.33;;;25.70;28.50;;;;;;2265919;61;20365;-65
2022/10/03 04:25:42;0.00;0.00;0.62;0.00;0.00;0.62;2.73;1.27;;;25.60;28.40;;;;;;2265305;61;20453;-66
2022/10/03 04:28:55;0.00;0.00;0.62;0.00;0.00;0.62;2.30;1.20;;;25.60;28.40;;;;;;2265870;61;20356;-66
2022/10/03 04:31:49;0.00;0.00;0.62;0.00;0.00;0.62;2.83;1.43;;;25.60;28.50;;;;;;2265940;61;20357;-67
2022/10/03 04:34:54;0.00;0.00;0.62;0.00;0.00;0.62;2.97;1.20;;;25.60;29.00;;;;;;2264986;61;20400;-66
2022/10/03 04:37:43;0.00;0.00;0.62;0.00;0.00;0.62;3.33;1.43;;;25.50;28.40;;;;;;2265910;61;20360;-67
2022/10/03 04:40:42;0.00;0.00;0.62;0.00;0.00;0.62;2.33;1.30;;;25.60;28.50;;;;;;2264931;61;20791;-67
2022/10/03 04:43:42;0.00;0.00;0.62;0.00;0.00;0.62;4.50;1.80;;;25.50;28.40;;;;;;2265897;61;20396;-68
2022/10/03 04:46:38;0.00;0.00;0.62;0.00;0.00;0.62;3.00;1.50;;;25.50;28.40;;;;;;2266075;61;20592;-69
2022/10/03 04:49:33;0.00;0.00;0.62;0.00;0.00;0.62;5.00;1.33;;;25.50;28.40;;;;;;2264790;61;20430;-66
2022/10/03 04:52:26;0.00;0.00;0.62;0.00;0.00;0.62;3.77;1.53;;;25.50;28.40;;;;;;2265982;61;20400;-66
2022/10/03 04:55:26;0.00;0.00;0.62;0.00;0.00;0.62;2.40;1.30;;;25.50;28.40;;;;;;2264768;61;20353;-66
2022/10/03 04:58:23;0.00;0.00;0.62;0.00;0.00;0.62;5.33;1.57;;;25.50;28.40;;;;;;2265767;61;20403;-66
2022/10/03 05:01:18;0.00;0.00;0.62;0.00;0.00;0.62;3.90;1.30;;;25.50;28.40;;;;;;2265928;61;20357;-66
2022/10/03 05:04:18;0.00;0.00;0.62;0.00;0.00;0.62;6.40;2.07;;;25.50;28.40;;;;;;2264656;61;20403;-66
2022/10/03 05:07:13;0.00;0.00;0.62;0.00;0.00;0.62;2.90;1.60;;;25.50;28.40;;;;;;2265885;61;20384;-66
2022/10/03 05:10:12;0.00;0.00;0.62;0.00;0.00;0.62;2.30;1.33;;;25.40;28.40;;;;;;2264560;61;20373;-67
2022/10/03 05:13:10;0.00;0.00;0.62;0.00;0.00;0.62;3.03;1.27;;;25.40;28.40;;;;;;2265913;61;20362;-67
2022/10/03 05:16:06;0.00;0.00;0.62;0.00;0.00;0.62;3.27;1.50;;;25.40;28.50;;;;;;2265848;61;20432;-67
2022/10/03 05:19:00;0.00;0.00;0.62;0.00;0.00;0.62;1.90;1.33;;;25.40;28.40;;;;;;2264720;61;20353;-66
2022/10/03 05:21:55;0.00;0.00;0.62;0.00;0.00;0.62;6.10;2.23;;;25.40;28.40;;;;;;2265609;61;20649;-66
2022/10/03 05:24:49;0.00;0.00;0.62;0.00;0.00;0.62;3.20;1.50;;;25.30;28.40;;;;;;2264688;61;20680;-67
2022/10/03 05:27:44;0.00;0.00;0.62;0.00;0.00;0.62;4.83;1.73;;;25.30;28.40;;;;;;2265597;61;20356;-66
2022/10/03 05:30:41;0.00;0.00;0.62;0.00;0.00;0.62;2.63;1.27;;;25.30;29.00;;;;;;2265871;61;20838;-65
2022/10/03 05:33:38;0.00;0.00;0.62;0.00;0.00;0.62;4.37;2.00;;;25.30;28.50;;;;;;2264532;61;20368;-68
2022/10/03 05:36:34;0.00;0.00;0.62;0.00;0.00;0.62;2.47;1.27;;;25.20;28.50;;;;;;2265805;61;20614;-67
2022/10/03 05:39:26;0.00;0.00;0.62;0.00;0.00;0.62;3.20;1.63;;;25.20;28.50;;;;;;2264723;61;20373;-65
2022/10/03 05:42:36;0.00;0.00;0.62;0.00;0.00;0.62;3.10;1.50;;;25.20;28.50;;;;;;2265654;61;20406;-69
2022/10/03 05:45:31;0.00;0.00;0.62;0.00;0.00;0.62;5.23;1.23;;;25.20;28.50;;;;;;2265724;61;20384;-68
2022/10/03 05:48:32;0.00;0.00;0.62;0.00;0.00;0.62;2.60;1.00;;;25.20;28.60;;;;;;2264711;61;20729;-73
2022/10/03 05:51:58;0.00;0.00;0.62;0.00;0.00;0.62;3.53;1.87;;;25.20;28.60;;;;;;2265706;61;20785;-69
2022/10/03 05:55:26;0.00;0.00;0.62;0.00;0.00;0.62;2.70;1.30;;;25.20;28.60;;;;;;2264780;61;20716;-69
2022/10/03 05:59:13;0.00;0.00;0.62;0.00;0.00;0.62;2.83;1.13;;;25.20;28.60;;;;;;2265440;61;20617;-71
2022/10/03 06:02:52;0.00;0.00;0.62;0.00;0.00;0.62;3.77;1.30;;;25.20;28.60;;;;;;2264570;61;20428;-64
2022/10/03 06:05:58;0.00;0.00;0.62;0.00;0.00;0.62;3.67;1.73;;;25.20;28.70;;;;;;2265587;61;20768;-68
2022/10/03 06:08:58;0.00;0.00;0.62;0.00;0.00;0.62;2.93;1.33;;;25.20;28.70;;;;;;2264771;61;20396;-65
2022/10/03 06:12:03;0.00;0.00;0.62;0.00;0.00;0.62;3.40;1.23;;;25.20;28.70;;;;;;2265341;61;20364;-67
2022/10/03 06:15:36;0.00;0.00;0.62;0.00;0.00;0.62;3.93;1.60;;;25.20;28.70;;;;;;2265823;61;20395;-74
2022/10/03 06:18:55;0.00;0.00;0.62;0.00;0.00;0.62;2.73;1.40;;;25.20;28.70;;;;;;2264556;61;20361;-72
2022/10/03 06:22:22;0.00;0.00;0.62;0.00;0.00;0.62;2.07;1.00;;;25.20;28.70;;;;;;2265640;61;20357;-68
2022/10/03 06:26:05;0.00;0.00;0.62;0.00;0.00;0.62;2.70;1.30;;;25.20;28.70;;;;;;2264352;61;20435;-64
2022/10/03 06:29:35;0.00;0.00;0.62;0.00;0.00;0.62;4.27;1.20;;;25.20;28.70;;;;;;2265610;61;20357;-66
2022/10/03 06:33:14;0.00;0.00;0.62;0.00;0.00;0.62;2.27;1.40;;;25.20;28.70;;;;;;2263355;61;20388;-71
2022/10/03 06:36:23;0.00;0.00;0.62;0.00;0.00;0.62;3.00;1.40;;;25.20;28.60;;;;;;2265691;61;20357;-73
2022/10/03 06:39:57;0.00;0.00;0.62;0.00;0.00;0.62;2.47;1.17;;;25.20;28.70;;;;;;2264300;61;20384;-66
2022/10/03 06:43:08;0.00;0.00;0.62;0.00;0.00;0.62;3.37;1.30;;;25.20;28.70;;;;;;2265352;61;20737;-70
2022/10/03 06:46:32;0.00;0.00;0.62;0.00;0.00;0.62;3.00;1.50;;;25.20;28.70;;;;;;2268412;61;20392;-73
2022/10/03 06:50:04;0.00;0.00;0.62;0.00;0.00;0.62;2.80;1.17;;;25.20;28.70;;;;;;2269608;61;20379;-69
2022/10/03 06:53:35;0.00;0.00;0.62;0.00;0.00;0.62;2.60;1.40;;;25.20;28.70;;;;;;2269628;61;20475;-63
2022/10/03 06:56:59;0.00;0.00;0.62;0.00;0.00;0.62;3.50;1.57;;;25.20;28.70;;;;;;2269561;61;20351;-73
2022/10/03 07:00:09;0.00;0.00;0.62;0.00;0.00;0.62;1.70;1.00;;;25.20;28.70;;;;;;2269298;61;20450;-65
2022/10/03 07:03:51;0.00;0.00;0.62;0.00;0.00;0.62;3.77;1.60;;;25.20;28.70;;;;;;2269415;61;20748;-71
2022/10/03 07:07:08;0.00;0.00;0.62;0.00;0.00;0.62;2.43;1.00;;;25.20;28.70;;;;;;2260691;61;20362;-70
2022/10/03 07:10:25;0.00;0.00;0.62;0.00;0.00;0.62;2.40;1.13;;;25.20;28.70;;;;;;2268348;61;20446;-68
2022/10/03 07:13:58;0.00;0.00;0.62;0.00;0.00;0.62;1.93;0.90;;;25.20;28.70;;;;;;2269769;61;20394;-69
2022/10/03 07:17:08;0.00;0.00;0.62;0.00;0.00;0.62;3.20;1.40;;;25.20;28.80;;;;;;2268491;61;20367;-69
2022/10/03 07:20:10;0.00;0.00;0.62;0.00;0.00;0.62;3.10;1.30;;;25.30;28.80;;;;;;2269442;61;20372;-68
2022/10/03 07:23:47;0.00;0.00;0.62;0.00;0.00;0.62;5.23;1.13;;;25.30;28.80;;;;;;2268022;61;20398;-67
2022/10/03 07:27:19;0.00;0.00;0.62;0.00;0.00;0.62;3.93;1.50;;;25.30;28.90;;;;;;2266364;61;20364;-61
2022/10/03 07:30:12;0.00;0.00;0.62;0.00;0.00;0.62;2.43;1.37;;;25.30;29.40;;;;;;2268617;61;20395;-70
2022/10/03 07:33:41;0.00;0.00;0.62;0.00;0.00;0.62;3.30;1.30;;;25.30;28.80;;;;;;2270013;61;20712;-69
2022/10/03 07:40:26;0.00;0.00;0.62;0.00;0.00;0.62;2.70;1.20;;;25.30;28.90;;;;;;2269126;61;20380;-69
2022/10/03 07:43:39;0.00;0.00;0.62;0.00;0.00;0.62;3.60;1.57;;;25.20;28.90;;;;;;2270056;61;20413;-70
2022/10/03 07:47:11;0.00;0.00;0.62;0.00;0.00;0.62;3.30;1.47;;;25.20;28.90;;;;;;2265063;61;20385;-72
2022/10/03 07:50:33;0.00;0.00;0.62;0.00;0.00;0.62;2.87;1.47;;;25.30;29.00;;;;;;2265960;61;20377;-68
2022/10/03 07:53:54;0.00;0.00;0.62;0.00;0.00;0.62;2.67;1.53;;;25.30;29.00;;;;;;2265044;61;20437;-68
2022/10/03 07:57:20;0.00;0.00;0.62;0.00;0.00;0.62;2.47;1.47;;;25.30;29.00;;;;;;2266009;61;20570;-69
2022/10/03 08:00:18;0.00;0.00;0.62;0.00;0.00;0.62;2.70;1.30;;;25.30;29.10;;;;;;2264966;61;20393;-66
2022/10/03 08:03:55;0.00;0.00;0.62;0.00;0.00;0.62;2.30;1.30;;;25.30;29.10;;;;;;2265991;61;20396;-69
2022/10/03 08:06:42;0.00;0.00;0.62;0.00;0.00;0.62;1.93;1.03;;;25.30;29.10;;;;;;2262393;61;20381;-69
2022/10/03 08:09:59;0.00;0.00;0.62;0.00;0.00;0.62;2.23;1.10;;;25.40;29.20;;;;;;2265435;61;20376;-68
2022/10/03 08:13:23;0.00;0.00;0.62;0.00;0.00;0.62;1.90;0.87;;;25.40;29.10;;;;;;2266048;61;20401;-72
2022/10/03 08:16:32;0.00;0.00;0.62;0.00;0.00;0.62;1.90;0.97;;;25.40;29.10;;;;;;2264921;61;20357;-73
2022/10/03 08:20:00;0.00;0.00;0.62;0.00;0.00;0.62;2.47;1.33;;;25.40;29.10;;;;;;2265904;61;20414;-70
2022/10/03 08:23:06;0.00;0.00;0.62;0.00;0.00;0.62;2.33;1.37;;;25.50;29.10;;;;;;2264651;61;20354;-65
2022/10/03 08:26:04;0.00;0.00;0.62;0.00;0.00;0.62;2.20;1.30;;;25.50;29.10;;;;;;2265984;61;20783;-63
2022/10/03 08:29:31;0.00;0.00;0.62;0.00;0.00;0.62;3.00;1.00;;;25.50;29.20;;;;;;2266008;61;20357;-68
2022/10/03 08:33:30;0.00;0.00;0.62;0.00;0.00;0.62;1.70;1.00;;;25.60;29.20;;;;;;2265692;61;20404;-71
2022/10/03 08:36:53;0.00;0.00;0.62;0.00;0.00;0.62;1.80;1.07;;;25.60;29.20;;;;;;2266094;61;20353;-71
2022/10/03 08:40:29;0.00;0.00;0.62;0.00;0.00;0.62;1.97;1.10;;;25.60;29.20;;;;;;2264780;61;20461;-71
2022/10/03 08:43:56;0.00;0.00;0.62;0.00;0.00;0.62;1.73;0.80;;;25.60;29.20;;;;;;2266100;61;20356;-71
2022/10/03 08:47:11;0.00;0.00;0.62;0.00;0.00;0.62;1.70;1.20;;;25.70;29.20;;;;;;2265761;61;20393;-74
2022/10/03 08:51:04;0.00;0.00;0.62;0.00;0.00;0.62;1.97;1.17;;;25.70;29.80;;;;;;2265894;61;20397;-64
2022/10/03 08:54:15;0.00;0.00;0.62;0.00;0.00;0.62;2.23;1.10;;;25.80;29.30;;;;;;2263254;61;20470;-71
2022/10/03 08:57:22;0.00;0.00;0.62;0.00;0.00;0.62;2.53;1.20;;;25.80;29.30;;;;;;2266015;61;20357;-69
2022/10/03 09:00:15;0.00;0.00;0.62;0.00;0.00;0.62;2.50;0.90;;;25.80;29.30;;;;;;2264470;61;20378;-66
2022/10/03 09:04:05;0.00;0.00;0.62;0.00;0.00;0.62;1.90;1.20;;;25.80;29.30;;;;;;2265941;61;20373;-73
2022/10/03 09:07:14;0.00;0.00;0.62;0.00;0.00;0.62;3.33;1.40;;;25.90;29.30;;;;;;2264495;61;20874;-65
2022/10/03 09:10:46;0.00;0.00;0.62;0.00;0.00;0.62;3.40;2.03;;;25.90;29.80;;;;;;2265861;61;20381;-65
2022/10/03 09:14:05;0.00;0.00;0.62;0.00;0.00;0.62;4.43;3.30;;;26.00;29.40;;;;;;2265804;61;20727;-68
2022/10/03 09:17:43;0.00;0.00;0.62;0.00;0.00;0.62;6.00;3.47;;;26.00;29.30;;;;;;2265743;61;20396;-68
2022/10/03 09:21:20;0.00;0.00;0.62;0.00;0.00;0.62;5.80;3.87;;;26.00;29.30;;;;;;2265356;61;20389;-67
2022/10/03 09:24:42;0.00;0.00;0.62;0.00;0.00;0.62;4.93;3.50;;;26.10;29.40;;;;;;2265668;61;20365;-67
2022/10/03 09:28:11;0.00;0.00;0.62;0.00;0.00;0.62;4.43;3.30;;;26.10;29.40;;;;;;2265671;61;20369;-70
2022/10/03 09:31:17;0.00;0.00;0.62;0.00;0.00;0.62;4.30;3.30;;;26.10;29.40;;;;;;2265574;61;20372;-68
2022/10/03 09:34:32;0.00;0.00;0.62;0.00;0.00;0.62;4.73;3.37;;;26.20;29.40;;;;;;2265907;61;20569;-68
2022/10/03 09:37:52;0.00;0.00;0.62;0.00;0.00;0.62;3.73;3.00;;;26.20;29.40;;;;;;2264691;61;20365;-70
2022/10/03 09:41:30;0.00;0.00;0.62;0.00;0.00;0.62;4.37;3.77;;;26.20;29.30;;;;;;2265860;61;20419;-67
2022/10/03 09:44:50;0.00;0.00;0.62;0.00;0.00;0.62;4.60;3.00;;;26.20;29.30;;;;;;2264335;61;20413;-64
2022/10/03 09:48:14;0.00;0.00;0.62;0.00;0.00;0.62;6.70;3.87;;;26.30;29.30;;;;;;2265934;61;20388;-73
2022/10/03 09:51:22;0.00;0.00;0.62;0.00;0.00;0.62;6.07;3.40;;;26.30;29.30;;;;;;2264639;61;20400;-67
2022/10/03 09:54:59;0.00;0.00;0.62;0.00;0.00;0.62;3.57;2.90;;;26.30;29.30;;;;;;2265750;61;20376;-66
2022/10/03 09:58:14;0.00;0.00;0.62;0.00;0.00;0.62;5.30;3.83;;;26.30;29.30;;;;;;2265565;61;20357;-68
2022/10/03 10:01:20;0.00;0.00;0.62;0.00;0.00;0.62;5.33;4.27;;;26.40;29.30;;;;;;2265610;61;20412;-69
2022/10/03 10:04:58;0.00;0.00;0.62;0.00;0.00;0.62;6.07;4.60;;;26.40;29.30;;;;;;2265606;61;20760;-69
2022/10/03 10:08:38;0.00;0.00;0.62;0.00;0.00;0.62;5.03;4.20;;;26.40;29.30;;;;;;2263980;61;20404;-72
2022/10/03 10:11:48;0.00;0.00;0.62;0.00;0.00;0.62;4.73;4.03;;;26.50;29.30;;;;;;2265555;61;20389;-70
2022/10/03 10:15:06;0.00;0.00;0.62;0.00;0.00;0.62;5.10;4.13;;;26.50;29.30;;;;;;2264661;61;20415;-65
2022/10/03 10:18:49;0.00;0.00;0.62;0.00;0.00;0.62;5.27;4.07;;;26.50;29.30;;;;;;2265579;61;20654;-71
2022/10/03 10:22:10;0.00;0.00;0.62;0.00;0.00;0.62;4.17;3.73;;;26.60;29.30;;;;;;2263843;61;20404;-75
2022/10/03 10:25:27;0.00;0.00;0.62;0.00;0.00;0.62;5.23;4.73;;;26.60;29.30;;;;;;2265532;61;20381;-67
2022/10/03 10:29:07;0.00;0.00;0.62;0.00;0.00;0.62;5.63;4.83;;;26.60;29.30;;;;;;2264737;61;20408;-69
2022/10/03 10:33:00;0.00;0.00;0.62;0.00;0.00;0.62;5.20;3.97;;;26.60;29.30;;;;;;2265618;61;20356;-63
2022/10/03 10:36:30;0.00;0.00;0.62;0.00;0.00;0.62;6.33;4.40;;;26.70;29.30;;;;;;2257978;61;20454;-63
2022/10/03 10:39:47;0.00;0.00;0.62;0.00;0.00;0.62;5.33;4.47;;;26.70;29.30;;;;;;2262559;61;20583;-64
2022/10/03 10:43:34;0.00;0.00;0.62;0.00;0.00;0.62;6.03;4.20;;;26.70;29.30;;;;;;2264854;61;20354;-65
2022/10/03 10:47:13;0.00;0.00;0.62;0.00;0.00;0.62;4.93;4.43;;;26.80;29.20;;;;;;2498438;53;20386;-64
2022/10/03 10:51:04;0.00;0.00;0.62;0.00;0.00;0.62;5.40;4.50;;;26.80;29.20;;;;;;2264605;61;20384;-63
2022/10/03 10:54:50;0.00;0.00;0.62;0.00;0.00;0.62;5.87;3.90;;;26.80;29.70;;;;;;2265564;61;20353;-64
2022/10/03 10:58:20;0.00;0.00;0.62;0.00;0.00;0.62;4.27;3.30;;;26.80;29.10;;;;;;2264319;61;20369;-64
2022/10/03 11:01:47;0.00;0.00;0.62;0.00;0.00;0.62;4.60;3.73;;;26.80;29.10;;;;;;2265453;61;20361;-65
2022/10/03 11:05:33;0.00;0.00;0.62;0.00;0.00;0.62;4.73;3.63;;;26.90;29.20;;;;;;2265560;61;20579;-63
2022/10/03 11:09:03;0.00;0.00;0.62;0.00;0.00;0.62;5.00;4.13;;;26.90;29.20;;;;;;2266267;61;20365;-64
2022/10/03 11:13:03;0.00;0.00;0.62;0.00;0.00;0.62;4.97;3.63;;;27.00;29.20;;;;;;2266369;61;20563;-64
2022/10/03 11:16:49;0.00;0.00;0.62;0.00;0.00;0.62;5.23;4.17;;;27.00;29.20;;;;;;2266119;61;20353;-64
2022/10/03 11:20:16;0.00;0.00;0.62;0.00;0.00;0.62;4.43;3.60;;;27.10;29.20;;;;;;2265124;61;20380;-64
2022/10/03 11:24:10;0.00;0.00;0.62;0.00;0.00;0.62;5.07;3.57;;;27.10;29.20;;;;;;2266218;61;20708;-64
2022/10/03 11:27:35;0.00;0.00;0.62;0.00;0.00;0.62;4.80;3.30;;;27.20;29.10;;;;;;2256528;61;20410;-64
2022/10/03 11:30:55;0.00;0.00;0.62;0.00;0.00;0.62;4.10;3.40;;;27.20;29.60;;;;;;2266008;61;20381;-64
2022/10/03 11:34:46;0.00;0.00;0.62;0.00;0.00;0.62;3.93;2.87;;;27.20;29.50;;;;;;2266260;61;20361;-63
2022/10/03 11:37:40;0.00;0.00;0.62;0.00;0.00;0.62;3.57;3.00;;;27.20;28.90;;;;;;2265937;61;20391;-64
2022/10/03 11:40:37;0.00;0.00;0.62;0.00;0.00;0.62;4.00;3.20;;;27.30;28.90;;;;;;2266291;61;20612;-64
2022/10/03 11:44:15;0.00;0.00;0.62;0.00;0.00;0.62;4.60;3.43;;;27.30;28.90;;;;;;2264954;61;20425;-64
2022/10/03 11:47:27;0.00;0.00;0.62;0.00;0.00;0.62;3.80;3.17;;;27.30;28.80;;;;;;2266305;61;20375;-64
2022/10/03 11:50:37;0.00;0.00;0.62;0.00;0.00;0.62;3.77;3.10;;;27.30;28.80;;;;;;2264925;61;20373;-64
2022/10/03 11:53:41;0.00;0.00;0.62;0.00;0.00;0.62;4.07;2.90;;;27.30;28.70;;;;;;2266168;61;20377;-64
2022/10/03 11:56:37;0.00;0.00;0.62;0.00;0.00;0.62;4.47;3.50;;;27.30;28.70;;;;;;2265590;61;20384;-64
2022/10/03 11:59:57;0.00;0.00;0.62;0.00;0.00;0.62;5.10;3.87;;;27.30;28.70;;;;;;2265789;61;20372;-64
2022/10/03 12:03:01;0.00;0.00;0.62;0.00;0.00;0.62;3.20;2.63;;;27.40;28.70;;;;;;2266335;61;20357;-63
2022/10/03 12:08:53;0.00;0.00;0.62;0.00;0.00;0.62;4.90;3.53;;;27.40;28.60;;;;;;2265023;61;20384;-64
2022/10/03 12:09:16;0.00;0.00;0.62;0.00;0.00;0.62;4.33;3.40;;;27.40;28.60;;;;;;2266165;61;20392;-64
2022/10/03 12:12:09;0.00;0.00;0.62;0.00;0.00;0.62;3.50;2.83;;;27.40;28.60;;;;;;2264974;61;20407;-67
2022/10/03 12:15:04;0.00;0.00;0.62;0.00;0.00;0.62;3.40;2.53;;;27.40;28.60;;;;;;2266281;61;20350;-65
2022/10/03 12:18:01;0.00;0.00;0.62;0.00;0.00;0.62;4.27;2.77;;;27.40;28.50;;;;;;2265902;61;20472;-65
2022/10/03 12:21:10;0.00;0.00;0.62;0.00;0.00;0.62;3.80;2.93;;;27.40;28.50;;;;;;2264986;61;20805;-64
2022/10/03 12:24:14;0.00;0.00;0.62;0.00;0.00;0.62;4.23;3.23;;;27.40;28.50;;;;;;2266000;61;20364;-64
2022/10/03 12:27:11;0.00;0.00;0.62;0.00;0.00;0.62;3.70;3.00;;;27.40;28.50;;;;;;2265009;61;20407;-64
2022/10/03 12:30:05;0.00;0.00;0.62;0.00;0.00;0.62;3.30;2.50;;;27.40;28.50;;;;;;2266030;61;20412;-64
2022/10/03 12:33:16;0.00;0.00;0.62;0.00;0.00;0.62;3.60;2.70;;;27.40;28.50;;;;;;2265882;61;20361;-64
2022/10/03 12:36:10;0.00;0.00;0.62;0.00;0.00;0.62;4.60;3.13;;;27.40;28.40;;;;;;2265915;61;20381;-64
2022/10/03 12:39:18;0.00;0.00;0.62;0.00;0.00;0.62;5.00;3.37;;;27.40;28.40;;;;;;2266004;61;20576;-64
2022/10/03 12:42:23;0.00;0.00;0.62;0.00;0.00;0.62;4.07;2.97;;;27.40;28.40;;;;;;2264780;61;20392;-64
2022/10/03 12:45:22;0.00;0.00;0.62;0.00;0.00;0.62;3.47;2.77;;;27.40;28.40;;;;;;2268761;61;20384;-65
2022/10/03 12:48:45;0.00;0.00;0.62;0.00;0.00;0.62;4.27;3.50;;;27.40;28.40;;;;;;2269822;61;20575;-64
2022/10/03 12:51:46;0.00;0.00;0.62;0.00;0.00;0.62;3.10;2.40;;;27.40;28.40;;;;;;2270254;61;20562;-64